createdAt,value
2023-03-28T00:00:00.794Z,0
2023-03-28T00:05:00.786Z,0
2023-03-28T00:10:00.849Z,0
2023-03-28T00:15:00.793Z,0
2023-03-28T00:20:45.382Z,0
2023-03-28T00:26:46.476Z,0
2023-03-28T00:30:01.094Z,0
2023-03-28T00:35:00.853Z,0
2023-03-28T00:40:00.896Z,0
2023-03-28T00:45:01.527Z,0
2023-03-28T00:50:00.826Z,0
2023-03-28T00:55:25.032Z,0
2023-03-28T01:00:00.974Z,0
2023-03-28T01:05:00.810Z,0
2023-03-28T01:10:00.874Z,0
2023-03-28T01:15:00.933Z,0
2023-03-28T01:20:00.869Z,0
2023-03-28T01:25:00.898Z,0
2023-03-28T01:30:01.134Z,0
2023-03-28T01:35:00.804Z,0
2023-03-28T01:40:01.065Z,0
2023-03-28T01:45:00.895Z,0
2023-03-28T01:50:01.037Z,0
2023-03-28T01:55:18.378Z,0
2023-03-28T02:00:02.340Z,0
2023-03-28T02:05:00.803Z,0
2023-03-28T02:10:00.782Z,0
2023-03-28T02:15:02.346Z,0
2023-03-28T02:20:00.840Z,0
2023-03-28T02:25:00.906Z,0
2023-03-28T02:30:00.886Z,0
2023-03-28T02:35:00.942Z,0
2023-03-28T02:40:00.864Z,0
2023-03-28T02:45:01.111Z,0
2023-03-28T02:50:00.901Z,0
2023-03-28T02:55:17.087Z,0
2023-03-28T03:00:04.156Z,0
2023-03-28T03:05:00.802Z,0
2023-03-28T03:10:00.987Z,0
2023-03-28T03:15:00.861Z,0
2023-03-28T03:20:00.894Z,0
2023-03-28T03:25:00.952Z,0
2023-03-28T03:30:02.787Z,0
2023-03-28T03:35:00.987Z,0
2023-03-28T03:40:00.845Z,0
2023-03-28T03:45:02.210Z,0
2023-03-28T03:50:00.893Z,0
2023-03-28T03:55:23.200Z,0
2023-03-28T04:00:02.878Z,0
2023-03-28T04:05:02.952Z,0
2023-03-28T04:10:00.870Z,0
2023-03-28T04:15:00.979Z,0
2023-03-28T04:20:07.331Z,0
2023-03-28T04:25:01.236Z,0
2023-03-28T04:30:02.768Z,0
2023-03-28T04:35:02.184Z,0
2023-03-28T04:40:01.078Z,0
2023-03-28T04:45:02.619Z,0
2023-03-28T04:50:00.960Z,0
2023-03-28T04:55:20.078Z,0
2023-03-28T05:00:00.933Z,0
2023-03-28T05:05:00.890Z,0
2023-03-28T05:10:00.845Z,0
2023-03-28T05:15:00.888Z,0
2023-03-28T05:20:01.179Z,265
2023-03-28T05:25:01.854Z,265
2023-03-28T05:30:01.005Z,268
2023-03-28T05:35:00.950Z,270
2023-03-28T05:40:00.988Z,270
2023-03-28T05:45:00.953Z,270
2023-03-28T05:50:00.905Z,270
2023-03-28T05:55:36.417Z,271
2023-03-28T06:00:00.974Z,274
2023-03-28T06:05:00.887Z,276
2023-03-28T06:10:00.928Z,286
2023-03-28T06:15:00.854Z,285
2023-03-28T06:20:05.760Z,292
2023-03-28T06:25:01.004Z,296
2023-03-28T06:30:06.375Z,292
2023-03-28T06:35:00.864Z,291
2023-03-28T06:40:00.841Z,294
2023-03-28T06:45:01.029Z,292
2023-03-28T06:50:00.884Z,308
2023-03-28T06:55:30.612Z,305
2023-03-28T07:00:00.972Z,325
2023-03-28T07:05:00.971Z,326
2023-03-28T07:10:00.945Z,326
2023-03-28T07:15:01.015Z,322
2023-03-28T07:20:00.898Z,331
2023-03-28T07:25:00.954Z,296
2023-03-28T07:30:02.038Z,296
2023-03-28T07:35:00.998Z,296
2023-03-28T07:40:00.916Z,299
2023-03-28T07:45:00.948Z,302
2023-03-28T07:50:00.926Z,310
2023-03-28T07:55:21.588Z,303
2023-03-28T08:00:02.480Z,325
2023-03-28T08:05:00.955Z,326
2023-03-28T08:10:01.038Z,352
2023-03-28T08:15:01.047Z,1020
2023-03-28T08:20:00.960Z,1444
2023-03-28T08:25:01.250Z,1362
2023-03-28T08:30:01.012Z,1409
2023-03-28T08:35:00.906Z,1361
2023-03-28T08:40:00.896Z,1083
2023-03-28T08:45:02.044Z,959
2023-03-28T08:50:01.018Z,1420
2023-03-28T08:55:18.678Z,465
2023-03-28T09:00:00.963Z,1219
2023-03-28T09:10:00.926Z,1621
2023-03-28T09:15:01.338Z,399
2023-03-28T09:20:00.912Z,370
2023-03-28T09:25:01.034Z,287
2023-03-28T09:30:00.918Z,366
2023-03-28T09:35:01.068Z,385
2023-03-28T09:40:00.927Z,1620
2023-03-28T09:45:01.057Z,1905
2023-03-28T09:50:12.199Z,451
2023-03-28T09:55:28.781Z,396
2023-03-28T10:00:00.926Z,417
2023-03-28T10:05:01.904Z,1778
2023-03-28T10:10:00.934Z,667
2023-03-28T10:15:01.079Z,1870
2023-03-28T10:20:00.905Z,343
2023-03-28T10:25:01.042Z,415
2023-03-28T10:30:00.995Z,382
2023-03-28T10:35:01.023Z,400
2023-03-28T10:40:02.585Z,1343
2023-03-28T10:45:01.027Z,347
2023-03-28T10:50:01.317Z,338
2023-03-28T10:55:21.709Z,1334
2023-03-28T11:00:00.944Z,561
2023-03-28T11:05:00.983Z,407
2023-03-28T11:10:01.100Z,960
2023-03-28T11:15:01.003Z,1563
2023-03-28T11:20:00.968Z,950
2023-03-28T11:25:01.085Z,426
2023-03-28T11:30:01.222Z,359
2023-03-28T11:35:01.424Z,453
2023-03-28T11:40:01.023Z,360
2023-03-28T11:45:01.142Z,391
2023-03-28T11:50:00.913Z,374
2023-03-28T11:55:17.709Z,358
2023-03-28T12:00:00.997Z,325
2023-03-28T12:05:02.159Z,371
2023-03-28T12:10:00.929Z,351
2023-03-28T12:15:01.046Z,320
2023-03-28T12:20:00.980Z,337
2023-03-28T12:25:00.956Z,312
2023-03-28T12:30:00.972Z,316
2023-03-28T12:35:00.977Z,311
2023-03-28T12:40:00.992Z,298
2023-03-28T12:45:01.176Z,303
2023-03-28T12:50:01.016Z,330
2023-03-28T12:55:15.983Z,333
2023-03-28T13:00:01.046Z,333
2023-03-28T13:05:00.992Z,340
2023-03-28T13:10:01.095Z,327
2023-03-28T13:15:01.122Z,310
2023-03-28T13:20:00.928Z,303
2023-03-28T13:25:02.807Z,302
2023-03-28T13:30:00.978Z,304
2023-03-28T13:35:00.993Z,307
2023-03-28T13:40:00.995Z,313
2023-03-28T13:45:01.061Z,315
2023-03-28T13:50:00.987Z,294
2023-03-28T13:55:21.076Z,308
2023-03-28T14:00:01.001Z,296
2023-03-28T14:05:01.045Z,305
2023-03-28T14:10:01.042Z,313
2023-03-28T14:15:01.008Z,312
2023-03-28T14:20:01.034Z,306
2023-03-28T14:25:01.099Z,305
2023-03-28T14:30:01.141Z,301
2023-03-28T14:35:01.038Z,295
2023-03-28T14:40:00.964Z,298
2023-03-28T14:45:02.514Z,296
2023-03-28T14:50:01.030Z,292
2023-03-28T14:55:03.870Z,298
2023-03-28T15:00:01.024Z,300
2023-03-28T15:05:01.156Z,294
2023-03-28T15:10:01.000Z,292
2023-03-28T15:15:01.231Z,294
2023-03-28T15:20:01.151Z,293
2023-03-28T15:25:01.050Z,294
2023-03-28T15:30:01.197Z,296
2023-03-28T15:35:01.024Z,294
2023-03-28T15:40:01.002Z,289
2023-03-28T15:45:02.077Z,288
2023-03-28T15:50:04.113Z,295
2023-03-28T15:55:26.136Z,287
2023-03-28T16:00:01.373Z,288
2023-03-28T16:05:01.014Z,285
2023-03-28T16:10:00.980Z,289
2023-03-28T16:15:01.072Z,285
2023-03-28T16:20:01.104Z,286
2023-03-28T16:25:01.059Z,293
2023-03-28T16:30:01.144Z,288
2023-03-28T16:35:01.089Z,289
2023-03-28T16:40:04.315Z,285
2023-03-28T16:45:01.068Z,280
2023-03-28T16:50:01.017Z,271
2023-03-28T16:55:21.986Z,272
2023-03-28T17:00:02.051Z,271
2023-03-28T17:05:01.016Z,269
2023-03-28T17:10:02.191Z,267
2023-03-28T17:15:01.553Z,265
2023-03-28T17:20:01.129Z,266
2023-03-28T17:25:01.029Z,0
2023-03-28T17:30:01.047Z,0
2023-03-28T17:35:01.241Z,0
2023-03-28T17:40:01.114Z,0
2023-03-28T17:45:01.211Z,0
2023-03-28T17:50:01.059Z,0
2023-03-28T17:55:24.673Z,0
2023-03-28T18:00:01.071Z,0
2023-03-28T18:05:01.072Z,0
2023-03-28T18:10:01.119Z,0
2023-03-28T18:15:02.147Z,0
2023-03-28T18:20:01.073Z,0
2023-03-28T18:25:01.150Z,0
2023-03-28T18:30:01.818Z,0
2023-03-28T18:35:01.230Z,0
2023-03-28T18:40:01.205Z,0
2023-03-28T18:45:01.102Z,0
2023-03-28T18:50:01.118Z,0
2023-03-28T18:55:17.792Z,0
2023-03-28T19:00:01.029Z,0
2023-03-28T19:05:02.146Z,0
2023-03-28T19:10:01.160Z,0
2023-03-28T19:15:01.097Z,0
2023-03-28T19:20:01.086Z,0
2023-03-28T19:25:02.445Z,0
2023-03-28T19:30:02.354Z,0
2023-03-28T19:35:01.155Z,0
2023-03-28T19:40:01.663Z,0
2023-03-28T19:45:01.137Z,0
2023-03-28T19:50:01.029Z,0
2023-03-28T19:55:26.002Z,0
2023-03-28T20:00:02.307Z,0
2023-03-28T20:10:08.591Z,0
2023-03-28T20:15:03.008Z,0
2023-03-28T20:20:01.170Z,0
2023-03-28T20:25:01.139Z,0
2023-03-28T20:30:01.103Z,0
2023-03-28T20:35:01.151Z,0
2023-03-28T20:40:01.041Z,0
2023-03-28T20:45:01.154Z,0
2023-03-28T20:50:01.059Z,0
2023-03-28T20:55:01.142Z,0
2023-03-28T21:00:01.149Z,0
2023-03-28T21:05:01.192Z,0
2023-03-28T21:10:01.099Z,0
2023-03-28T21:15:01.152Z,0
2023-03-28T21:20:05.534Z,0
2023-03-28T21:25:01.093Z,0
2023-03-28T21:30:01.042Z,0
2023-03-28T21:35:01.223Z,0
2023-03-28T21:40:01.126Z,0
2023-03-28T21:45:01.161Z,0
2023-03-28T21:50:01.146Z,0
2023-03-28T21:55:01.110Z,0
2023-03-28T22:00:02.096Z,0
2023-03-28T22:05:01.102Z,0
2023-03-28T22:10:02.593Z,0
2023-03-28T22:15:01.295Z,0
2023-03-28T22:20:01.271Z,0
2023-03-28T22:25:01.212Z,0
2023-03-28T22:30:02.369Z,0
2023-03-28T22:35:01.195Z,0
2023-03-28T22:40:01.138Z,0
2023-03-28T22:45:01.166Z,0
2023-03-28T22:50:01.245Z,0
2023-03-28T22:55:01.197Z,0
2023-03-28T23:00:02.683Z,0
2023-03-28T23:05:01.263Z,0
2023-03-28T23:10:01.169Z,0
2023-03-28T23:15:02.354Z,0
2023-03-28T23:20:01.222Z,0
2023-03-28T23:25:01.289Z,0
2023-03-28T23:30:05.199Z,0
2023-03-28T23:35:01.179Z,0
2023-03-28T23:40:01.275Z,0
2023-03-28T23:45:01.141Z,0
2023-03-28T23:50:01.115Z,0
2023-03-28T23:55:01.242Z,0
